createdAt,value
2023-10-13T00:00:43.417Z,101440.44
2023-10-13T00:03:15.845Z,101431.25
2023-10-13T00:05:43.714Z,101437.38
2023-10-13T00:08:13.540Z,101442.16
2023-10-13T00:10:40.414Z,101448.94
2023-10-13T00:13:09.459Z,101436.69
2023-10-13T00:15:47.500Z,101444.88
2023-10-13T00:18:14.452Z,101429.75
2023-10-13T00:20:44.922Z,101443.97
2023-10-13T00:23:11.788Z,101427.03
2023-10-13T00:25:38.773Z,101442.78
2023-10-13T00:28:07.393Z,101446.88
2023-10-13T00:30:35.388Z,101445.84
2023-10-13T00:33:04.124Z,101443.16
2023-10-13T00:35:31.756Z,101442.69
2023-10-13T00:37:59.157Z,101434.38
2023-10-13T00:40:26.663Z,101439.16
2023-10-13T00:42:54.611Z,101433.03
2023-10-13T00:45:21.560Z,101436.78
2023-10-13T00:47:48.686Z,101437.97
2023-10-13T00:50:16.162Z,101431.69
2023-10-13T00:52:48.988Z,101428.28
2023-10-13T00:55:16.222Z,101432.53
2023-10-13T00:57:43.490Z,101438.47
2023-10-13T01:00:13.779Z,101422.00
2023-10-13T01:02:42.447Z,101438.13
2023-10-13T01:05:10.520Z,101438.63
2023-10-13T01:07:37.963Z,101430.47
2023-10-13T01:10:15.690Z,101435.03
2023-10-13T01:12:43.015Z,101437.41
2023-10-13T01:15:10.699Z,101428.94
2023-10-13T01:17:39.882Z,101432.94
2023-10-13T01:20:07.264Z,101428.50
2023-10-13T01:22:34.276Z,101423.03
2023-10-13T01:25:01.272Z,101418.09
2023-10-13T01:27:29.607Z,101427.75
2023-10-13T01:30:00.839Z,101410.41
2023-10-13T01:32:28.303Z,101426.13
2023-10-13T01:35:06.030Z,101409.66
2023-10-13T01:37:35.966Z,101425.41
2023-10-13T01:40:03.039Z,101417.06
2023-10-13T01:42:29.948Z,101415.06
2023-10-13T01:44:56.695Z,101425.00
2023-10-13T01:47:23.668Z,101418.72
2023-10-13T01:49:56.901Z,101418.56
2023-10-13T01:52:30.777Z,101395.13
2023-10-13T01:54:58.622Z,101420.72
2023-10-13T01:57:25.765Z,101416.66
2023-10-13T01:59:52.712Z,101424.19
2023-10-13T02:02:19.666Z,101421.84
2023-10-13T02:04:46.643Z,101428.28
2023-10-13T02:07:13.686Z,101414.56
2023-10-13T02:12:27.038Z,101427.69
2023-10-13T02:14:53.944Z,101435.38
2023-10-13T02:17:20.726Z,101434.91
2023-10-13T02:19:47.726Z,101441.91
2023-10-13T02:22:15.722Z,101434.59
2023-10-13T02:24:42.623Z,101431.38
2023-10-13T02:27:09.583Z,101434.94
2023-10-13T02:29:36.488Z,101424.78
2023-10-13T02:32:07.266Z,101435.00
2023-10-13T02:34:34.136Z,101443.16
2023-10-13T02:37:05.713Z,101437.41
2023-10-13T02:39:32.620Z,101417.41
2023-10-13T02:41:59.396Z,101427.09
2023-10-13T02:44:26.680Z,101408.94
2023-10-13T02:46:56.167Z,101433.41
2023-10-13T02:49:33.043Z,101438.16
2023-10-13T02:51:59.918Z,101427.78
2023-10-13T02:54:27.040Z,101424.13
2023-10-13T02:57:00.714Z,101424.34
2023-10-13T02:59:28.862Z,101428.44
2023-10-13T03:04:27.860Z,101417.75
2023-10-13T03:07:02.687Z,101429.00
2023-10-13T03:09:29.466Z,101419.28
2023-10-13T03:11:57.841Z,101417.78
2023-10-13T03:14:31.707Z,101400.97
2023-10-13T03:17:03.692Z,101415.22
2023-10-13T03:19:37.834Z,101418.97
2023-10-13T03:22:10.199Z,101402.84
2023-10-13T03:24:40.767Z,101420.66
2023-10-13T03:27:09.997Z,101410.63
2023-10-13T03:29:40.981Z,101414.22
2023-10-13T03:32:07.812Z,101421.69
2023-10-13T03:34:34.735Z,101413.69
2023-10-13T03:37:02.207Z,101423.72
2023-10-13T03:39:36.021Z,101410.81
2023-10-13T03:42:03.006Z,101415.88
2023-10-13T03:44:38.270Z,101414.53
2023-10-13T03:47:08.260Z,101408.25
2023-10-13T03:49:40.472Z,101416.25
2023-10-13T03:52:17.053Z,101416.91
2023-10-13T03:54:44.513Z,101410.09
2023-10-13T03:57:15.401Z,101406.88
2023-10-13T03:59:45.198Z,101419.94
2023-10-13T04:02:12.056Z,101425.38
2023-10-13T04:04:39.316Z,101423.69
2023-10-13T04:07:06.414Z,101419.78
2023-10-13T04:09:33.386Z,101415.38
2023-10-13T04:12:11.048Z,101422.19
2023-10-13T04:14:41.350Z,101415.38
2023-10-13T04:17:11.695Z,101405.66
2023-10-13T04:19:47.667Z,101419.09
2023-10-13T04:22:16.082Z,101414.88
2023-10-13T04:24:42.946Z,101426.25
2023-10-13T04:27:09.829Z,101425.03
2023-10-13T04:29:36.857Z,101421.47
2023-10-13T04:32:12.203Z,101425.03
2023-10-13T04:34:39.122Z,101425.88
2023-10-13T04:37:15.310Z,101426.25
2023-10-13T04:39:42.804Z,101424.53
2023-10-13T04:42:09.671Z,101426.94
2023-10-13T04:44:36.473Z,101431.34
2023-10-13T04:47:03.807Z,101424.22
2023-10-13T04:49:38.268Z,101410.28
2023-10-13T04:52:07.359Z,101429.00
2023-10-13T04:54:34.257Z,101425.91
2023-10-13T04:57:06.112Z,101427.97
2023-10-13T04:59:36.401Z,101419.63
2023-10-13T05:02:03.534Z,101429.84
2023-10-13T05:04:30.481Z,101429.66
2023-10-13T05:06:57.782Z,101428.13
2023-10-13T05:09:27.401Z,101413.53
2023-10-13T05:11:55.317Z,101436.28
2023-10-13T05:14:22.157Z,101431.00
2023-10-13T05:17:00.561Z,101434.56
2023-10-13T05:19:33.140Z,101442.59
2023-10-13T05:22:00.520Z,101446.16
2023-10-13T05:24:27.763Z,101446.44
2023-10-13T05:26:57.446Z,101451.06
2023-10-13T05:29:29.210Z,101443.94
2023-10-13T05:31:56.500Z,101449.88
2023-10-13T05:34:23.513Z,101451.59
2023-10-13T05:36:50.432Z,101448.50
2023-10-13T05:39:23.604Z,101460.72
2023-10-13T05:41:52.391Z,101457.69
2023-10-13T05:44:19.405Z,101466.31
2023-10-13T05:46:50.342Z,101470.91
2023-10-13T05:49:21.793Z,101454.22
2023-10-13T05:51:50.372Z,101474.94
2023-10-13T05:54:17.176Z,101479.47
2023-10-13T05:56:47.377Z,101489.47
2023-10-13T05:59:22.629Z,101474.03
2023-10-13T06:01:52.779Z,101485.03
2023-10-13T06:04:20.062Z,101489.78
2023-10-13T06:06:46.971Z,101496.88
2023-10-13T06:09:15.520Z,101498.72
2023-10-13T06:11:42.360Z,101497.50
2023-10-13T06:14:11.929Z,101501.78
2023-10-13T06:16:38.825Z,101497.22
2023-10-13T06:19:05.680Z,101512.47
2023-10-13T06:21:32.452Z,101500.03
2023-10-13T06:24:01.736Z,101497.19
2023-10-13T06:26:29.143Z,101505.13
2023-10-13T06:28:59.853Z,101511.13
2023-10-13T06:31:33.188Z,101498.75
2023-10-13T06:34:00.078Z,101510.22
2023-10-13T06:36:27.095Z,101508.28
2023-10-13T06:39:01.599Z,101512.09
2023-10-13T06:41:38.726Z,101504.72
2023-10-13T06:44:11.199Z,101508.50
2023-10-13T06:46:38.313Z,101504.84
2023-10-13T06:49:05.305Z,101516.56
2023-10-13T06:51:39.977Z,101514.97
2023-10-13T06:54:08.731Z,101529.38
2023-10-13T06:56:35.592Z,101519.69
2023-10-13T06:59:07.378Z,101513.72
2023-10-13T07:01:40.706Z,101519.31
2023-10-13T07:04:11.108Z,101532.97
2023-10-13T07:06:38.730Z,101524.19
2023-10-13T07:09:07.287Z,101519.44
2023-10-13T07:11:37.174Z,101539.34
2023-10-13T07:14:05.660Z,101529.56
2023-10-13T07:16:32.581Z,101530.81
2023-10-13T07:18:59.540Z,101538.69
2023-10-13T07:21:30.885Z,101540.91
2023-10-13T07:23:59.433Z,101540.28
2023-10-13T07:26:29.544Z,101552.09
2023-10-13T07:29:08.137Z,101541.41
2023-10-13T07:31:47.151Z,101548.53
2023-10-13T07:34:14.360Z,101539.31
2023-10-13T07:36:47.393Z,101545.31
2023-10-13T07:39:33.561Z,101548.22
2023-10-13T07:42:03.654Z,101556.13
2023-10-13T07:44:30.702Z,101553.53
2023-10-13T07:46:57.716Z,101559.66
2023-10-13T07:49:24.956Z,101558.97
2023-10-13T07:51:57.012Z,101563.94
2023-10-13T07:54:24.083Z,101558.53
2023-10-13T07:56:56.338Z,101569.69
2023-10-13T07:59:23.107Z,101568.50
2023-10-13T08:01:54.401Z,101558.16
2023-10-13T08:04:21.266Z,101569.84
2023-10-13T08:06:48.069Z,101563.06
2023-10-13T08:09:15.559Z,101574.44
2023-10-13T08:11:50.500Z,101547.84
2023-10-13T08:14:38.844Z,101578.59
2023-10-13T08:17:20.551Z,101582.31
2023-10-13T08:20:03.303Z,101564.41
2023-10-13T08:22:45.597Z,101567.88
2023-10-13T08:25:22.962Z,101573.75
2023-10-13T08:28:00.263Z,101566.22
2023-10-13T08:30:44.872Z,101573.38
2023-10-13T08:33:20.742Z,101573.13
2023-10-13T08:35:47.747Z,101585.06
2023-10-13T08:38:31.930Z,101572.34
2023-10-13T08:41:12.227Z,101587.34
2023-10-13T08:43:47.405Z,101575.59
2023-10-13T08:46:27.081Z,101565.75
2023-10-13T08:49:07.700Z,101578.84
2023-10-13T08:51:37.461Z,101587.50
2023-10-13T08:54:17.964Z,101575.72
2023-10-13T08:57:05.893Z,101582.00
2023-10-13T08:59:35.939Z,101589.88
2023-10-13T09:02:28.832Z,101591.91
2023-10-13T09:05:26.985Z,101586.25
2023-10-13T09:08:05.750Z,101577.88
2023-10-13T09:10:50.729Z,101579.63
2023-10-13T09:13:23.555Z,101575.34
2023-10-13T09:16:02.954Z,101578.88
2023-10-13T09:18:41.075Z,101577.25
2023-10-13T09:21:23.744Z,101560.03
2023-10-13T09:24:00.954Z,101574.13
2023-10-13T09:26:42.859Z,101586.28
2023-10-13T09:29:26.843Z,101589.56
2023-10-13T09:32:18.108Z,101577.50
2023-10-13T09:34:49.422Z,101570.94
2023-10-13T09:37:16.295Z,101563.00
2023-10-13T09:39:55.252Z,101577.34
2023-10-13T09:42:24.297Z,101569.53
2023-10-13T09:45:05.889Z,101572.75
2023-10-13T09:47:44.556Z,101574.06
2023-10-13T09:50:23.856Z,101567.75
2023-10-13T09:53:03.630Z,101570.13
2023-10-13T09:55:43.593Z,101547.81
2023-10-13T09:58:17.882Z,101564.44
2023-10-13T10:01:03.237Z,101552.94
2023-10-13T10:03:36.148Z,101560.41
2023-10-13T10:06:12.443Z,101569.22
2023-10-13T10:08:52.436Z,101544.81
2023-10-13T10:11:46.830Z,101560.63
2023-10-13T10:14:49.291Z,101561.22
2023-10-13T10:17:17.042Z,101555.97
2023-10-13T10:19:53.540Z,101557.13
2023-10-13T10:22:38.135Z,101544.69
2023-10-13T10:25:15.113Z,101546.59
2023-10-13T10:27:44.465Z,101533.72
2023-10-13T10:30:19.614Z,101543.09
2023-10-13T10:32:56.292Z,101544.84
2023-10-13T10:36:07.255Z,101546.59
2023-10-13T10:38:34.296Z,101540.50
2023-10-13T10:41:12.022Z,101543.44
2023-10-13T10:43:39.033Z,101539.16
2023-10-13T10:46:07.131Z,101538.28
2023-10-13T10:48:34.005Z,101526.63
2023-10-13T10:51:10.212Z,101528.09
2023-10-13T10:53:45.188Z,101513.31
2023-10-13T10:56:23.475Z,101507.66
2023-10-13T10:59:01.753Z,101496.94
2023-10-13T11:01:33.359Z,101496.63
2023-10-13T11:04:14.242Z,101506.88
2023-10-13T11:06:51.571Z,101513.94
2023-10-13T11:09:39.290Z,101490.19
2023-10-13T11:12:08.992Z,101502.97
2023-10-13T11:14:42.996Z,101491.84
2023-10-13T11:17:10.602Z,101497.06
2023-10-13T11:19:49.048Z,101488.22
2023-10-13T11:22:17.827Z,101491.19
2023-10-13T11:24:44.825Z,101487.59
2023-10-13T11:27:17.740Z,101488.66
2023-10-13T11:29:48.552Z,101484.00
2023-10-13T11:32:18.925Z,101483.53
2023-10-13T11:34:45.798Z,101483.16
2023-10-13T11:37:22.952Z,101467.66
2023-10-13T11:39:50.270Z,101464.44
2023-10-13T11:42:25.927Z,101462.19
2023-10-13T11:44:52.843Z,101458.84
2023-10-13T11:47:25.929Z,101453.28
2023-10-13T11:49:52.937Z,101443.88
2023-10-13T11:52:27.911Z,101451.13
2023-10-13T11:55:00.685Z,101443.78
2023-10-13T11:57:39.727Z,101448.69
2023-10-13T12:00:14.390Z,101429.78
2023-10-13T12:02:42.533Z,101413.38
2023-10-13T12:05:13.953Z,101430.41
2023-10-13T12:07:47.290Z,101420.13
2023-10-13T12:10:18.625Z,101420.75
2023-10-13T12:12:49.126Z,101409.06
2023-10-13T12:15:18.214Z,101396.53
2023-10-13T12:17:47.260Z,101411.28
2023-10-13T12:20:23.226Z,101407.09
2023-10-13T12:22:50.875Z,101398.72
2023-10-13T12:25:17.807Z,101390.28
2023-10-13T12:27:44.632Z,101400.53
2023-10-13T12:30:18.796Z,101388.44
2023-10-13T12:32:53.611Z,101385.50
2023-10-13T12:35:28.061Z,101383.44
2023-10-13T12:37:56.023Z,101389.22
2023-10-13T12:40:30.896Z,101388.34
2023-10-13T12:42:58.024Z,101377.06
2023-10-13T12:45:24.809Z,101381.84
2023-10-13T12:48:01.811Z,101377.16
2023-10-13T12:50:38.167Z,101359.81
2023-10-13T12:53:09.902Z,101355.44
2023-10-13T12:55:43.468Z,101367.97
2023-10-13T12:58:16.593Z,101362.53
2023-10-13T13:00:51.537Z,101359.72
2023-10-13T13:03:27.139Z,101349.00
2023-10-13T13:05:58.857Z,101361.78
2023-10-13T13:08:32.291Z,101367.97
2023-10-13T13:11:06.726Z,101357.94
2023-10-13T13:13:42.238Z,101355.53
2023-10-13T13:16:09.891Z,101357.59
2023-10-13T13:18:59.358Z,101354.97
2023-10-13T13:21:39.584Z,101350.00
2023-10-13T13:24:25.910Z,101340.16
2023-10-13T13:26:54.684Z,101333.47
2023-10-13T13:29:25.208Z,101336.97
2023-10-13T13:31:53.098Z,101333.22
2023-10-13T13:34:20.266Z,101336.50
2023-10-13T13:36:55.398Z,101333.25
2023-10-13T13:39:23.020Z,101331.13
2023-10-13T13:41:49.800Z,101332.53
2023-10-13T13:44:22.887Z,101336.19
2023-10-13T13:47:01.204Z,101311.75
2023-10-13T13:49:41.717Z,101322.84
2023-10-13T13:52:20.888Z,101316.00
2023-10-13T13:54:49.168Z,101318.66
2023-10-13T13:57:24.917Z,101320.28
2023-10-13T13:59:53.383Z,101322.78
2023-10-13T14:02:29.040Z,101323.38
2023-10-13T14:05:03.067Z,101321.03
2023-10-13T14:07:36.239Z,101308.03
2023-10-13T14:10:03.143Z,101307.81
2023-10-13T14:12:30.024Z,101314.19
2023-10-13T14:15:00.620Z,101290.84
2023-10-13T14:17:29.622Z,101307.84
2023-10-13T14:20:04.973Z,101296.19
2023-10-13T14:22:31.954Z,101312.50
2023-10-13T14:24:59.197Z,101299.91
2023-10-13T14:27:30.871Z,101306.13
2023-10-13T14:30:16.350Z,101291.69
2023-10-13T14:32:43.645Z,101292.31
2023-10-13T14:35:10.995Z,101292.31
2023-10-13T14:37:43.517Z,101288.47
2023-10-13T14:40:19.227Z,101282.41
2023-10-13T14:42:48.877Z,101282.81
2023-10-13T14:45:27.062Z,101278.63
2023-10-13T14:47:58.882Z,101284.63
2023-10-13T14:50:25.811Z,101272.69
2023-10-13T14:52:52.821Z,101258.72
2023-10-13T14:55:20.633Z,101265.16
2023-10-13T14:57:50.635Z,101268.66
2023-10-13T15:00:23.340Z,101276.56
2023-10-13T15:02:50.258Z,101257.16
2023-10-13T15:05:24.393Z,101275.25
2023-10-13T15:07:51.736Z,101268.06
2023-10-13T15:10:28.133Z,101264.22
2023-10-13T15:12:56.002Z,101258.03
2023-10-13T15:15:31.429Z,101263.22
2023-10-13T15:18:04.610Z,101258.69
2023-10-13T15:20:31.470Z,101261.06
2023-10-13T15:22:58.391Z,101251.16
2023-10-13T15:25:25.852Z,101257.50
2023-10-13T15:27:52.719Z,101256.13
2023-10-13T15:30:19.586Z,101252.84
2023-10-13T15:32:46.552Z,101252.94
2023-10-13T15:35:16.336Z,101254.88
2023-10-13T15:37:43.324Z,101250.72
2023-10-13T15:40:11.138Z,101248.25
2023-10-13T15:42:41.040Z,101254.41
2023-10-13T15:45:08.403Z,101247.81
2023-10-13T15:50:24.608Z,101233.78
2023-10-13T15:52:51.760Z,101238.94
2023-10-13T15:55:18.635Z,101229.84
2023-10-13T15:57:46.382Z,101233.44
2023-10-13T16:00:24.828Z,101247.13
2023-10-13T16:03:04.377Z,101241.69
2023-10-13T16:05:33.626Z,101245.97
2023-10-13T16:08:02.042Z,101234.16
2023-10-13T16:10:29.439Z,101241.19
2023-10-13T16:12:56.570Z,101232.59
2023-10-13T16:15:37.237Z,101218.94
2023-10-13T16:18:19.665Z,101237.44
2023-10-13T16:21:00.356Z,101233.00
2023-10-13T16:23:45.046Z,101234.91
2023-10-13T16:26:21.716Z,101233.81
2023-10-13T16:28:52.423Z,101213.97
2023-10-13T16:31:28.359Z,101225.84
2023-10-13T16:34:15.457Z,101234.66
2023-10-13T16:36:53.341Z,101230.09
2023-10-13T16:39:31.210Z,101218.19
2023-10-13T16:42:05.513Z,101225.19
2023-10-13T16:44:40.809Z,101230.06
2023-10-13T16:47:07.683Z,101236.22
2023-10-13T16:53:05.924Z,101230.69
2023-10-13T16:55:43.213Z,101229.41
2023-10-13T16:58:19.038Z,101237.88
2023-10-13T17:00:46.488Z,101241.28
2023-10-13T17:03:23.100Z,101232.25
2023-10-13T17:06:02.077Z,101236.50
2023-10-13T17:08:32.615Z,101235.03
2023-10-13T17:11:21.037Z,101235.72
2023-10-13T17:13:53.770Z,101214.00
2023-10-13T17:16:31.438Z,101232.94
2023-10-13T17:19:10.688Z,101241.63
2023-10-13T17:21:48.403Z,101218.22
2023-10-13T17:24:27.136Z,101216.75
2023-10-13T17:30:00.171Z,101225.84
2023-10-13T17:32:43.775Z,101233.84
2023-10-13T17:35:19.909Z,101234.88
2023-10-13T17:37:47.051Z,101229.19
2023-10-13T17:40:24.242Z,101247.31
2023-10-13T17:43:01.685Z,101228.09
2023-10-13T17:45:45.737Z,101224.72
2023-10-13T17:48:20.448Z,101245.34
2023-10-13T17:51:00.740Z,101241.09
2023-10-13T17:53:45.430Z,101233.09
2023-10-13T17:56:26.353Z,101236.47
2023-10-13T17:59:04.380Z,101198.28
2023-10-13T18:01:44.859Z,101227.81
2023-10-13T18:04:16.834Z,101229.06
2023-10-13T18:06:56.250Z,101236.19
2023-10-13T18:09:25.279Z,101236.59
2023-10-13T18:11:52.253Z,101226.25
2023-10-13T18:14:33.169Z,101235.91
2023-10-13T18:17:10.617Z,101229.72
2023-10-13T18:19:44.051Z,101216.00
2023-10-13T18:22:21.861Z,101229.69
2023-10-13T18:24:58.333Z,101233.81
2023-10-13T18:27:41.594Z,101235.69
2023-10-13T18:30:22.488Z,101215.50
2023-10-13T18:33:04.202Z,101211.25
2023-10-13T18:35:41.777Z,101224.91
2023-10-13T18:38:08.672Z,101216.47
2023-10-13T18:40:45.688Z,101225.47
2023-10-13T18:43:25.272Z,101230.91
2023-10-13T18:46:07.997Z,101226.81
2023-10-13T18:48:41.745Z,101228.25
2023-10-13T18:51:14.949Z,101225.25
2023-10-13T18:53:52.320Z,101224.34
2023-10-13T18:56:29.743Z,101209.31
2023-10-13T18:59:06.823Z,101215.16
2023-10-13T19:01:38.471Z,101233.28
2023-10-13T19:04:14.022Z,101229.44
2023-10-13T19:06:47.454Z,101212.09
2023-10-13T19:09:14.245Z,101233.63
2023-10-13T19:11:45.878Z,101219.63
2023-10-13T19:14:19.834Z,101220.50
2023-10-13T19:16:53.552Z,101239.03
2023-10-13T19:19:26.789Z,101236.88
2023-10-13T19:21:53.592Z,101236.66
2023-10-13T19:24:28.116Z,101229.03
2023-10-13T19:26:56.737Z,101241.88
2023-10-13T19:29:23.635Z,101244.03
2023-10-13T19:32:00.921Z,101237.31
2023-10-13T19:34:35.501Z,101237.00
2023-10-13T19:37:03.214Z,101245.03
2023-10-13T19:39:49.402Z,101240.22
2023-10-13T19:42:26.990Z,101245.34
2023-10-13T19:44:55.273Z,101237.25
2023-10-13T19:47:31.454Z,101233.84
2023-10-13T19:49:59.188Z,101241.50
2023-10-13T19:52:31.015Z,101218.75
2023-10-13T19:54:59.989Z,101244.50
2023-10-13T19:57:28.453Z,101245.31
2023-10-13T20:00:01.039Z,101252.91
2023-10-13T20:02:28.011Z,101243.31
2023-10-13T20:04:56.179Z,101244.56
2023-10-13T20:07:29.703Z,101246.47
2023-10-13T20:10:01.558Z,101226.66
2023-10-13T20:12:28.378Z,101242.31
2023-10-13T20:14:55.158Z,101250.13
2023-10-13T20:17:21.979Z,101246.13
2023-10-13T20:19:56.971Z,101233.28
2023-10-13T20:22:31.109Z,101249.09
2023-10-13T20:25:06.825Z,101244.91
2023-10-13T20:27:41.456Z,101248.75
2023-10-13T20:30:09.759Z,101251.94
2023-10-13T20:32:41.164Z,101227.03
2023-10-13T20:35:09.004Z,101248.78
2023-10-13T20:37:36.668Z,101246.03
2023-10-13T20:40:04.101Z,101248.38
2023-10-13T20:42:34.894Z,101224.56
2023-10-13T20:45:09.970Z,101239.72
2023-10-13T20:47:37.854Z,101233.81
2023-10-13T20:50:04.862Z,101242.28
2023-10-13T20:52:31.676Z,101249.84
2023-10-13T20:55:02.572Z,101248.13
2023-10-13T20:57:39.226Z,101209.31
2023-10-13T21:00:07.767Z,101239.28
2023-10-13T21:02:43.463Z,101246.84
2023-10-13T21:05:16.901Z,101225.09
2023-10-13T21:07:46.612Z,101238.16
2023-10-13T21:10:18.681Z,101234.56
2023-10-13T21:12:46.144Z,101233.31
2023-10-13T21:15:23.214Z,101229.47
2023-10-13T21:17:50.264Z,101234.13
2023-10-13T21:20:25.653Z,101216.94
2023-10-13T21:23:00.879Z,101204.94
2023-10-13T21:25:42.935Z,101223.91
2023-10-13T21:28:15.172Z,101209.53
2023-10-13T21:30:48.640Z,101209.69
2023-10-13T21:33:23.375Z,101224.72
2023-10-13T21:35:50.343Z,101207.69
2023-10-13T21:38:19.801Z,101217.31
2023-10-13T21:40:48.989Z,101197.75
2023-10-13T21:43:15.776Z,101212.91
2023-10-13T21:45:49.493Z,101212.09
2023-10-13T21:48:16.555Z,101188.72
2023-10-13T21:50:43.913Z,101209.78
2023-10-13T21:53:13.452Z,101200.84
2023-10-13T21:55:46.561Z,101209.50
2023-10-13T21:58:13.485Z,101209.78
2023-10-13T22:00:40.701Z,101187.63
2023-10-13T22:03:09.804Z,101206.97
2023-10-13T22:05:44.208Z,101200.41
2023-10-13T22:08:20.953Z,101206.50
2023-10-13T22:10:49.762Z,101201.06
2023-10-13T22:13:27.325Z,101199.13
2023-10-13T22:15:57.272Z,101194.72
2023-10-13T22:18:39.345Z,101195.69
2023-10-13T22:21:06.448Z,101198.44
2023-10-13T22:23:44.084Z,101195.84
2023-10-13T22:26:16.714Z,101187.78
2023-10-13T22:29:10.961Z,101195.34
2023-10-13T22:31:48.666Z,101197.88
2023-10-13T22:34:16.429Z,101186.31
2023-10-13T22:36:55.325Z,101194.50
2023-10-13T22:39:40.811Z,101192.81
2023-10-13T22:42:17.142Z,101183.97
2023-10-13T22:44:50.389Z,101189.41
2023-10-13T22:47:27.683Z,101171.75
2023-10-13T22:50:04.939Z,101169.81
2023-10-13T22:52:34.289Z,101183.59
2023-10-13T22:55:13.100Z,101181.00
2023-10-13T22:57:39.880Z,101182.28
2023-10-13T23:00:07.650Z,101168.78
2023-10-13T23:02:34.483Z,101176.75
2023-10-13T23:05:10.977Z,101172.06
2023-10-13T23:07:39.182Z,101174.13
2023-10-13T23:10:06.742Z,101169.88
2023-10-13T23:12:33.593Z,101171.09
2023-10-13T23:15:03.126Z,101179.84
2023-10-13T23:17:30.114Z,101177.31
2023-10-13T23:19:57.063Z,101181.47
2023-10-13T23:22:23.929Z,101178.50
2023-10-13T23:24:56.223Z,101158.59
2023-10-13T23:27:23.136Z,101178.22
2023-10-13T23:29:49.907Z,101174.97
2023-10-13T23:32:21.771Z,101178.34
2023-10-13T23:34:53.123Z,101176.66
2023-10-13T23:37:20.316Z,101152.03
2023-10-13T23:39:53.202Z,101176.66
2023-10-13T23:42:20.080Z,101174.13
2023-10-13T23:44:46.962Z,101162.28
2023-10-13T23:47:17.311Z,101170.56
2023-10-13T23:49:48.462Z,101152.63
2023-10-13T23:52:24.656Z,101153.03
2023-10-13T23:54:51.609Z,101151.66
2023-10-13T23:57:21.404Z,101160.44
2023-10-13T23:59:49.934Z,101162.94
